Time;durP1;ratioP1;P1;durP2;ratioP2;P2;SDS_P1;SDS_P2;PMS_P1;PMS_P2;Temp;Humidity;BMP_temperature;BMP_pressure;BME280_temperature;BME280_humidity;BME280_pressure;Samples;Min_cycle;Max_cycle;Signal;HPM_P1;HPM_P2
2022/06/16 00:02:14;;;;;;;3.62;2.12;;;;;;;15.43;59.87;99687.02;1722898;82;21232;-42
2022/06/16 00:04:46;;;;;;;3.75;1.85;;;;;;;15.43;60.15;99691.13;1709346;82;21354;-42
2022/06/16 00:07:10;;;;;;;3.17;1.72;;;;;;;15.44;60.29;99693.45;1727966;83;21584;-42
2022/06/16 00:09:39;;;;;;;2.90;1.50;;;;;;;15.47;60.54;99696.02;1710543;82;20976;-42
2022/06/16 00:12:08;;;;;;;4.67;1.98;;;;;;;15.49;60.24;99697.18;1720420;82;21046;-42
2022/06/16 00:14:35;;;;;;;4.33;1.80;;;;;;;15.49;59.72;99695.05;1735031;81;20980;-42
2022/06/16 00:17:05;;;;;;;8.68;2.25;;;;;;;15.53;59.38;99704.08;1729299;81;21958;-42
2022/06/16 00:19:33;;;;;;;3.70;2.05;;;;;;;15.56;59.66;99702.72;1688385;84;21878;-42
2022/06/16 00:22:00;;;;;;;3.77;1.90;;;;;;;15.60;60.38;99700.00;1707808;82;21617;-42
2022/06/16 00:24:28;;;;;;;3.05;2.10;;;;;;;15.62;60.82;99701.77;1721249;82;21064;-42
2022/06/16 00:26:56;;;;;;;4.05;2.15;;;;;;;15.64;60.77;99699.42;1721406;82;21092;-42
2022/06/16 00:29:24;;;;;;;3.02;2.00;;;;;;;15.61;60.98;99694.73;1723041;83;21491;-42
2022/06/16 00:31:51;;;;;;;3.98;1.90;;;;;;;15.63;60.93;99699.25;1722998;82;21205;-42
2022/06/16 00:34:19;;;;;;;3.58;2.20;;;;;;;15.62;60.79;99702.55;1720270;82;21514;-42
2022/06/16 00:36:46;;;;;;;5.10;2.08;;;;;;;15.59;60.32;99695.11;1719083;82;21020;-42
2022/06/16 00:39:13;;;;;;;3.62;2.10;;;;;;;15.54;60.29;99696.09;1719273;82;21059;-42
2022/06/16 00:41:40;;;;;;;4.80;2.10;;;;;;;15.50;60.46;99704.80;1719228;82;21056;-42
2022/06/16 00:44:22;;;;;;;3.60;2.27;;;;;;;15.47;60.61;99697.38;1723527;82;21562;-42
2022/06/16 00:46:49;;;;;;;2.37;2.00;;;;;;;15.45;60.59;99699.13;1720665;83;21476;-42
2022/06/16 00:49:17;;;;;;;4.45;2.00;;;;;;;15.43;60.40;99702.83;1722981;83;21504;-42
2022/06/16 00:51:50;;;;;;;2.72;1.90;;;;;;;15.40;60.27;99702.80;1720544;82;21034;-42
2022/06/16 00:54:32;;;;;;;5.00;2.27;;;;;;;15.36;60.24;99702.78;1723408;83;21048;-42
2022/06/16 00:57:07;;;;;;;3.35;2.35;;;;;;;15.36;59.94;99708.25;1720994;82;21087;-42
2022/06/16 00:59:35;;;;;;;2.98;1.90;;;;;;;15.34;59.92;99710.59;1721369;82;21088;-42
2022/06/16 01:02:05;;;;;;;3.20;1.90;;;;;;;15.35;60.49;99715.45;1707920;82;21017;-42
2022/06/16 01:07:35;;;;;;;3.15;2.00;;;;;;;15.49;61.24;99710.84;1723089;83;22092;-42
2022/06/16 01:10:04;;;;;;;6.37;2.20;;;;;;;15.58;60.95;99707.81;1718748;82;21113;-42
2022/06/16 01:15:52;;;;;;;7.35;2.77;;;;;;;15.72;59.96;99703.77;1707072;82;21098;-43
2022/06/16 01:18:54;;;;;;;6.20;2.45;;;;;;;15.79;59.48;99694.78;1718519;82;21045;-42
2022/06/16 01:21:47;;;;;;;6.75;2.58;;;;;;;15.84;58.95;99692.47;1720545;82;21614;-41
2022/06/16 01:24:45;;;;;;;5.50;2.10;;;;;;;15.87;58.71;99697.17;1713673;83;21165;-42
2022/06/16 01:27:53;;;;;;;3.70;2.27;;;;;;;15.89;58.60;99698.14;1719489;82;20976;-42
2022/06/16 01:30:36;;;;;;;3.58;2.02;;;;;;;15.90;58.55;99702.44;1718793;82;21037;-43
2022/06/16 01:33:18;;;;;;;4.40;2.05;;;;;;;15.86;58.02;99690.14;1722085;83;21076;-42
2022/06/16 01:36:00;;;;;;;3.25;1.90;;;;;;;15.78;58.03;99695.37;1688998;84;21059;-42
2022/06/16 01:38:48;;;;;;;6.30;2.10;;;;;;;15.76;58.24;99690.89;1680169;84;22138;-42
2022/06/16 01:41:54;;;;;;;5.65;2.20;;;;;;;15.78;58.29;99689.90;1710393;82;21534;-41
2022/06/16 01:44:27;;;;;;;4.50;2.35;;;;;;;15.79;58.45;99690.69;1712416;82;21068;-42
2022/06/16 01:46:58;;;;;;;3.87;2.20;;;;;;;15.77;58.82;99696.56;1718161;82;21085;-42
2022/06/16 01:49:33;;;;;;;3.72;2.15;;;;;;;15.78;58.68;99690.51;1717854;82;21002;-42
2022/06/16 01:52:08;;;;;;;4.45;2.15;;;;;;;15.79;58.47;99693.42;1722047;82;21255;-42
2022/06/16 01:54:46;;;;;;;3.65;2.47;;;;;;;15.74;58.58;99701.41;1722555;83;21079;-43
2022/06/16 01:57:44;;;;;;;7.92;2.35;;;;;;;15.64;58.89;99700.20;1718938;82;21076;-42
2022/06/16 02:00:16;;;;;;;4.30;2.10;;;;;;;15.48;58.90;99700.31;1720156;82;20969;-42
2022/06/16 02:03:07;;;;;;;4.30;2.12;;;;;;;15.31;59.12;99702.36;1719906;82;20955;-42
2022/06/16 02:05:42;;;;;;;2.92;1.98;;;;;;;15.21;59.35;99710.13;1722094;82;21957;-42
2022/06/16 02:08:19;;;;;;;3.10;1.98;;;;;;;15.12;60.07;99709.68;1719709;82;21088;-42
2022/06/16 02:10:59;;;;;;;3.52;2.00;;;;;;;15.09;60.35;99710.45;1722967;83;21032;-42
2022/06/16 02:13:30;;;;;;;3.50;2.00;;;;;;;15.11;60.30;99706.74;1722754;83;21563;-42
2022/06/16 02:16:05;;;;;;;4.22;1.90;;;;;;;15.16;60.27;99711.84;1721737;82;21048;-42
2022/06/16 02:18:37;;;;;;;6.12;2.00;;;;;;;15.25;60.43;99709.38;1719678;82;20973;-42
2022/06/16 02:21:28;;;;;;;3.60;2.02;;;;;;;15.28;61.21;99714.06;1719137;82;21060;-42
2022/06/16 02:23:57;;;;;;;6.85;2.22;;;;;;;15.30;61.32;99710.38;1719663;82;21056;-43
2022/06/16 02:26:26;;;;;;;3.85;2.20;;;;;;;15.32;61.22;99717.59;1721777;82;21575;-42
2022/06/16 02:28:56;;;;;;;4.62;2.20;;;;;;;15.33;61.67;99717.22;1723285;82;20993;-42
2022/06/16 02:31:41;;;;;;;6.05;1.92;;;;;;;15.36;61.37;99723.28;1721098;82;21211;-42
2022/06/16 02:34:41;;;;;;;4.87;2.05;;;;;;;15.39;60.74;99715.70;1721519;82;21017;-42
2022/06/16 02:37:33;;;;;;;;;;;;;;;15.40;60.23;99720.55;1725016;83;21012;-42
2022/06/16 02:40:24;;;;;;;3.47;1.85;;;;;;;15.31;60.59;99722.85;1719242;82;20466;-42
2022/06/16 02:43:22;;;;;;;4.75;2.30;;;;;;;15.13;61.08;99726.27;1722729;82;21056;-42
2022/06/16 02:46:16;;;;;;;3.55;2.10;;;;;;;15.08;61.35;99725.84;1721362;82;20918;-42
2022/06/16 02:48:55;;;;;;;4.12;2.30;;;;;;;15.00;61.44;99731.85;1716627;82;21088;-42
2022/06/16 02:51:46;;;;;;;4.78;2.40;;;;;;;15.00;61.50;99733.22;1690478;82;21049;-43
2022/06/16 02:54:29;;;;;;;4.85;2.33;;;;;;;15.05;61.53;99726.03;1714861;82;21226;-42
2022/06/16 02:57:20;;;;;;;3.85;2.08;;;;;;;15.08;61.34;99732.67;1720482;82;21084;-42
2022/06/16 02:59:56;;;;;;;6.28;2.30;;;;;;;15.09;61.19;99728.78;1711503;82;21256;-44
2022/06/16 03:02:24;;;;;;;8.00;2.22;;;;;;;15.11;61.54;99733.27;1718220;82;21567;-42
2022/06/16 03:04:58;;;;;;;6.10;2.42;;;;;;;15.14;61.63;99730.58;1720939;82;21076;-42
2022/06/16 03:07:25;;;;;;;5.50;2.60;;;;;;;15.20;61.72;99729.03;1716707;82;20967;-42
2022/06/16 03:09:56;;;;;;;3.67;2.25;;;;;;;15.27;61.95;99731.03;1717922;82;21088;-42
2022/06/16 03:12:24;;;;;;;3.13;2.03;;;;;;;15.31;61.21;99731.05;1715971;82;23172;-42
2022/06/16 03:14:52;;;;;;;7.15;2.75;;;;;;;15.33;60.89;99730.88;1718513;82;21475;-42
2022/06/16 03:17:21;;;;;;;5.20;2.60;;;;;;;15.36;60.47;99730.11;1719634;82;21005;-42
2022/06/16 03:19:49;;;;;;;5.65;2.35;;;;;;;15.36;60.05;99730.11;1722647;83;21047;-42
2022/06/16 03:22:18;;;;;;;3.40;2.30;;;;;;;15.34;60.05;99728.94;1722012;82;21021;-42
2022/06/16 03:24:45;;;;;;;4.17;2.35;;;;;;;15.32;59.98;99735.35;1720720;82;23147;-42
2022/06/16 03:27:13;;;;;;;8.28;2.67;;;;;;;15.30;60.28;99734.97;1718265;82;20969;-42
2022/06/16 03:29:43;;;;;;;4.00;2.03;;;;;;;15.33;60.21;99736.34;1721026;82;21558;-43
2022/06/16 03:32:12;;;;;;;4.65;2.15;;;;;;;15.38;60.28;99731.09;1722067;82;21040;-42
2022/06/16 03:34:40;;;;;;;6.97;2.37;;;;;;;15.43;60.10;99732.89;1723034;82;21089;-42
2022/06/16 03:37:08;;;;;;;6.78;2.83;;;;;;;15.45;60.18;99727.02;1697924;83;23165;-42
2022/06/16 03:39:44;;;;;;;4.08;2.20;;;;;;;15.46;60.31;99728.59;1722669;83;21159;-42
2022/06/16 03:42:15;;;;;;;6.22;2.30;;;;;;;15.49;60.57;99736.05;1722202;83;20965;-43
2022/06/16 03:44:42;;;;;;;7.00;2.47;;;;;;;15.48;60.56;99731.73;1718033;82;21641;-42
2022/06/16 03:47:12;;;;;;;4.95;2.42;;;;;;;15.51;60.70;99736.45;1718608;82;21053;-43
2022/06/16 03:49:41;;;;;;;4.97;2.95;;;;;;;15.55;60.35;99738.04;1720627;82;21263;-42
2022/06/16 03:52:09;;;;;;;3.33;2.33;;;;;;;15.60;60.17;99739.63;1722392;82;21595;-42
2022/06/16 03:54:37;;;;;;;4.33;2.62;;;;;;;15.63;60.04;99730.67;1711947;82;21096;-42
2022/06/16 03:57:06;;;;;;;4.33;1.83;;;;;;;15.65;59.61;99730.47;1726634;81;21051;-42
2022/06/16 03:59:34;;;;;;;5.17;2.58;;;;;;;15.67;59.80;99734.20;1699393;82;21118;-43
2022/06/16 04:02:04;;;;;;;4.97;2.70;;;;;;;15.70;59.67;99730.69;1697843;82;21153;-42
2022/06/16 04:04:33;;;;;;;5.70;2.70;;;;;;;15.76;59.69;99740.67;1703539;82;21047;-43
2022/06/16 04:07:03;;;;;;;6.33;2.27;;;;;;;15.83;59.80;99737.37;1717259;82;20982;-42
2022/06/16 04:09:31;;;;;;;4.22;2.52;;;;;;;15.85;59.31;99739.73;1682355;83;21064;-43
2022/06/16 04:12:00;;;;;;;7.37;2.93;;;;;;;15.85;59.38;99739.14;1708540;82;21088;-42
2022/06/16 04:14:28;;;;;;;2.72;2.05;;;;;;;15.87;59.34;99738.19;1751481;81;22138;-43
2022/06/16 04:17:02;;;;;;;4.90;2.52;;;;;;;15.88;59.76;99738.95;1740496;81;20973;-42
2022/06/16 04:19:31;;;;;;;3.90;2.33;;;;;;;15.92;59.26;99740.55;1754079;81;21004;-42
2022/06/16 04:21:59;;;;;;;6.30;2.50;;;;;;;15.98;59.28;99743.09;1745805;81;21033;-42
2022/06/16 04:24:34;;;;;;;4.45;2.52;;;;;;;16.06;59.29;99743.33;1755401;81;21029;-43
2022/06/16 04:27:02;;;;;;;3.40;2.50;;;;;;;16.15;59.55;99741.59;1732692;81;21085;-43
2022/06/16 04:29:29;;;;;;;4.72;2.65;;;;;;;16.29;59.41;99750.41;1757536;81;21084;-43
2022/06/16 04:31:59;;;;;;;7.35;2.47;;;;;;;16.41;58.90;99743.97;1754573;81;21117;-43
2022/06/16 04:34:31;;;;;;;4.70;2.58;;;;;;;16.51;58.79;99748.67;1753142;81;21016;-42
2022/06/16 04:37:00;;;;;;;5.17;2.52;;;;;;;16.60;58.56;99745.61;1728306;81;21609;-42
2022/06/16 04:39:29;;;;;;;3.42;2.52;;;;;;;16.69;58.73;99743.26;1741200;81;21145;-43
2022/06/16 04:41:59;;;;;;;3.95;2.67;;;;;;;16.75;58.18;99743.04;1731258;81;20942;-42
2022/06/16 04:44:27;;;;;;;7.37;2.50;;;;;;;16.80;58.03;99748.13;1741774;81;21086;-42
2022/06/16 04:46:55;;;;;;;6.80;2.80;;;;;;;16.83;58.22;99747.95;1743080;81;21044;-42
2022/06/16 04:49:25;;;;;;;3.60;2.47;;;;;;;16.90;58.36;99745.97;1755845;81;21570;-43
2022/06/16 04:51:53;;;;;;;4.67;2.40;;;;;;;17.00;57.82;99748.51;1756694;81;21138;-42
2022/06/16 04:54:21;;;;;;;6.58;2.25;;;;;;;17.10;57.89;99756.52;1744825;81;21598;-43
2022/06/16 04:56:51;;;;;;;3.05;2.02;;;;;;;17.20;57.57;99751.61;1749076;81;20967;-43
2022/06/16 04:59:24;;;;;;;4.10;2.22;;;;;;;17.29;57.33;99746.51;1697851;81;21718;-42
2022/06/16 05:01:58;;;;;;;4.10;2.40;;;;;;;17.37;56.95;99748.08;1751550;81;21033;-43
2022/06/16 05:04:29;;;;;;;6.55;2.00;;;;;;;17.46;56.73;99751.18;1750840;81;21020;-42
2022/06/16 05:07:10;;;;;;;3.05;2.00;;;;;;;17.51;56.27;99749.41;1726709;81;21044;-42
2022/06/16 05:09:39;;;;;;;7.35;2.15;;;;;;;17.56;55.92;99754.48;1737246;81;20980;-43
2022/06/16 05:12:24;;;;;;;7.20;2.20;;;;;;;17.66;56.06;99754.28;1738475;81;21011;-42
2022/06/16 05:15:10;;;;;;;3.52;2.27;;;;;;;17.79;55.38;99756.19;1746315;81;21602;-43
2022/06/16 05:17:38;;;;;;;4.28;1.90;;;;;;;17.93;54.99;99751.81;1749328;81;21231;-43
2022/06/16 05:20:22;;;;;;;7.95;2.40;;;;;;;18.04;54.79;99752.55;1672698;84;21499;-42
2022/06/16 05:22:51;;;;;;;5.55;2.17;;;;;;;18.13;54.28;99756.42;1713123;81;21005;-42
2022/06/16 05:25:21;;;;;;;3.47;1.95;;;;;;;18.24;53.98;99748.13;1736753;81;21006;-43
2022/06/16 05:27:59;;;;;;;6.10;1.98;;;;;;;18.34;53.76;99751.41;1736863;81;21072;-43
2022/06/16 05:30:44;;;;;;;7.45;2.25;;;;;;;18.47;54.15;99749.73;1711929;81;22220;-43
2022/06/16 05:33:30;;;;;;;5.65;2.20;;;;;;;18.60;53.70;99749.47;1724815;82;21563;-43
2022/06/16 05:36:18;;;;;;;3.62;2.00;;;;;;;18.71;53.02;99746.65;1726706;82;21162;-43
2022/06/16 05:39:05;;;;;;;5.37;2.20;;;;;;;18.81;52.72;99748.53;1668036;82;21100;-42
2022/06/16 05:41:34;;;;;;;4.93;2.30;;;;;;;18.92;52.55;99747.07;1701627;82;21581;-42
2022/06/16 05:44:09;;;;;;;5.40;1.80;;;;;;;19.01;52.21;99744.63;1707138;83;21297;-43
2022/06/16 05:46:55;;;;;;;8.95;1.80;;;;;;;19.13;52.26;99752.95;1705285;82;21099;-43
2022/06/16 05:49:24;;;;;;;2.50;2.00;;;;;;;19.24;52.16;99754.41;1705974;82;21028;-43
2022/06/16 05:51:53;;;;;;;6.80;1.93;;;;;;;19.34;51.73;99754.91;1711982;83;20934;-43
2022/06/16 05:54:23;;;;;;;6.58;2.00;;;;;;;19.42;50.76;99752.26;1704048;82;21077;-43
2022/06/16 05:56:50;;;;;;;4.45;1.90;;;;;;;19.50;50.56;99757.91;1742511;82;21773;-43
2022/06/16 05:59:17;;;;;;;5.65;1.77;;;;;;;19.61;50.65;99759.14;1721441;83;21543;-43
2022/06/16 06:01:46;;;;;;;4.53;1.65;;;;;;;19.69;48.34;99754.36;1720290;82;21040;-43
2022/06/16 06:04:14;;;;;;;6.62;1.75;;;;;;;19.74;48.09;99759.41;1722363;82;21551;-42
2022/06/16 06:06:43;;;;;;;3.33;1.50;;;;;;;19.76;48.36;99757.01;1716383;82;21037;-43
2022/06/16 06:17:26;;;;;;;3.05;1.60;;;;;;;20.11;47.54;99755.19;1796666;79;22414;-42
2022/06/16 06:19:55;;;;;;;4.03;1.70;;;;;;;20.11;47.62;99759.91;1756864;80;21183;-42
2022/06/16 06:22:29;;;;;;;2.80;1.40;;;;;;;20.23;48.11;99753.27;1756738;81;20946;-42
2022/06/16 06:25:10;;;;;;;5.33;1.47;;;;;;;20.36;46.15;99758.41;1723101;83;20964;-42
2022/06/16 06:27:41;;;;;;;3.45;1.32;;;;;;;20.44;44.63;99761.05;1722997;83;21020;-42
2022/06/16 06:30:31;;;;;;;8.63;1.60;;;;;;;20.48;45.39;99752.16;1720629;81;21555;-42
2022/06/16 06:32:56;;;;;;;2.20;1.40;;;;;;;20.55;45.45;99757.55;1670184;84;20902;-42
2022/06/16 06:35:24;;;;;;;3.08;1.60;;;;;;;20.63;45.18;99757.61;1697419;84;21906;-42
2022/06/16 06:37:52;;;;;;;2.47;1.50;;;;;;;20.72;44.44;99753.75;1697294;84;20996;-42
2022/06/16 06:40:25;;;;;;;2.83;1.57;;;;;;;20.77;45.11;99753.24;1697449;84;21598;-42
2022/06/16 06:42:52;;;;;;;3.55;1.47;;;;;;;20.88;45.13;99758.59;1697392;84;21048;-42
2022/06/16 06:45:20;;;;;;;2.47;1.30;;;;;;;20.96;42.71;99762.17;1715107;83;21223;-42
2022/06/16 06:47:48;;;;;;;1.65;1.05;;;;;;;20.96;42.31;99757.29;1707743;84;21130;-42
2022/06/16 06:50:26;;;;;;;2.60;1.30;;;;;;;21.01;42.69;99758.19;1707720;84;21012;-42
2022/06/16 06:52:54;;;;;;;3.17;1.60;;;;;;;21.06;42.46;99759.84;1707568;84;21032;-42
2022/06/16 06:55:22;;;;;;;2.98;1.20;;;;;;;21.11;43.15;99753.84;1707594;84;21586;-42
2022/06/16 06:57:52;;;;;;;2.90;1.40;;;;;;;21.19;41.80;99753.16;1707687;84;21025;-42
2022/06/16 07:00:22;;;;;;;3.45;1.40;;;;;;;21.25;42.40;99749.48;1707814;84;21236;-42
2022/06/16 07:02:51;;;;;;;3.85;1.62;;;;;;;21.37;42.14;99748.69;1707776;84;21024;-42
2022/06/16 07:05:18;;;;;;;3.55;1.30;;;;;;;21.43;42.18;99754.69;1707826;84;21048;-42
2022/06/16 07:07:46;;;;;;;2.45;1.50;;;;;;;21.51;41.68;99747.82;1707565;84;21131;-42
2022/06/16 07:10:15;;;;;;;2.87;1.60;;;;;;;21.57;40.70;99753.03;1707722;84;21036;-42
2022/06/16 07:12:42;;;;;;;3.52;1.50;;;;;;;21.62;41.03;99744.86;1708017;84;21595;-42
2022/06/16 07:15:10;;;;;;;3.12;1.30;;;;;;;21.73;40.49;99748.19;1707591;84;21507;-42
2022/06/16 07:17:39;;;;;;;3.30;1.35;;;;;;;21.85;39.82;99743.39;1715973;83;28275;-42
2022/06/16 07:20:09;;;;;;;2.87;1.40;;;;;;;21.95;38.85;99739.66;1716395;83;21568;-42
2022/06/16 07:22:36;;;;;;;3.15;1.40;;;;;;;22.02;39.06;99747.03;1716446;83;21121;-42
2022/06/16 07:25:05;;;;;;;2.10;1.20;;;;;;;22.10;38.72;99747.04;1716311;83;21273;-42
2022/06/16 07:27:32;;;;;;;2.45;1.40;;;;;;;22.14;37.96;99731.77;1716133;83;21058;-42
2022/06/16 07:30:01;;;;;;;3.35;1.22;;;;;;;22.18;38.02;99735.22;1715539;83;21101;-42
2022/06/16 07:32:28;;;;;;;3.17;1.20;;;;;;;22.27;38.60;99725.77;1720291;83;21043;-42
2022/06/16 07:34:56;;;;;;;2.65;1.42;;;;;;;22.43;39.32;99727.93;1691399;84;21115;-42
2022/06/16 07:37:23;;;;;;;3.75;1.65;;;;;;;22.58;39.00;99728.37;1691438;84;21821;-42
2022/06/16 07:39:50;;;;;;;2.12;1.10;;;;;;;22.74;39.40;99735.32;1691470;84;21043;-42
2022/06/16 07:42:17;;;;;;;2.10;1.00;;;;;;;22.91;39.17;99735.47;1691463;84;21019;-42
2022/06/16 07:44:45;;;;;;;2.10;1.25;;;;;;;23.15;38.15;99727.73;1691295;84;21047;-42
2022/06/16 07:47:13;;;;;;;2.08;1.30;;;;;;;23.36;36.50;99729.94;1691504;84;21016;-43
2022/06/16 07:49:40;;;;;;;4.72;1.50;;;;;;;23.46;36.34;99730.89;1687017;84;21987;-42
2022/06/16 07:52:07;;;;;;;1.92;1.12;;;;;;;23.47;35.97;99733.84;1691404;84;21015;-43
2022/06/16 07:54:35;;;;;;;5.95;1.57;;;;;;;23.50;36.07;99728.80;1691475;84;21538;-42
2022/06/16 07:57:03;;;;;;;3.12;1.17;;;;;;;23.46;35.17;99729.51;1691428;84;21531;-42
2022/06/16 07:59:31;;;;;;;2.90;1.20;;;;;;;23.29;35.63;99730.72;1691473;84;21059;-42
2022/06/16 08:01:58;;;;;;;4.08;1.20;;;;;;;23.09;35.68;99728.72;1691487;84;23139;-42
2022/06/16 08:04:26;;;;;;;3.58;1.20;;;;;;;22.90;36.63;99726.99;1691472;84;21104;-42
2022/06/16 08:06:53;;;;;;;2.87;1.02;;;;;;;22.76;36.66;99727.95;1691546;84;21522;-42
2022/06/16 08:09:22;;;;;;;2.92;1.15;;;;;;;22.68;36.55;99729.32;1720172;83;20924;-42
2022/06/16 08:12:08;;;;;;;1.90;1.30;;;;;;;22.67;37.02;99728.54;1720418;83;21644;-42
2022/06/16 08:14:39;;;;;;;2.42;1.30;;;;;;;22.68;37.85;99729.32;1691022;84;23132;-42
2022/06/16 08:17:10;;;;;;;3.37;1.50;;;;;;;22.69;37.36;99720.61;1691104;84;21559;-42
2022/06/16 08:19:39;;;;;;;2.47;1.30;;;;;;;22.70;37.22;99724.95;1691330;84;20971;-42
2022/06/16 08:22:07;;;;;;;1.87;1.10;;;;;;;22.70;36.44;99724.95;1691291;84;21373;-42
2022/06/16 08:24:34;;;;;;;1.80;1.05;;;;;;;22.76;35.52;99720.44;1691448;84;21019;-42
2022/06/16 08:27:04;;;;;;;4.83;1.00;;;;;;;22.85;36.35;99720.61;1691451;84;21105;-42
2022/06/16 08:29:31;;;;;;;1.77;1.20;;;;;;;22.95;35.79;99716.80;1691092;84;21493;-42
2022/06/16 08:31:59;;;;;;;3.35;1.30;;;;;;;23.10;36.17;99715.81;1691222;84;21577;-42
2022/06/16 08:34:26;;;;;;;2.33;1.30;;;;;;;23.25;36.19;99717.59;1691328;84;21040;-43
2022/06/16 08:36:55;;;;;;;3.72;0.90;;;;;;;23.39;34.43;99717.21;1691227;84;21031;-42
2022/06/16 08:39:22;;;;;;;1.62;0.95;;;;;;;23.44;35.11;99720.83;1691399;84;21166;-42
2022/06/16 08:42:25;;;;;;;2.50;1.15;;;;;;;23.50;35.16;99715.56;1691153;84;20925;-42
2022/06/16 08:45:10;;;;;;;3.50;1.10;;;;;;;23.58;35.63;99709.38;1691829;84;20964;-42
2022/06/16 08:48:17;;;;;;;3.70;0.93;;;;;;;23.72;34.80;99709.61;1704544;83;21048;-42
2022/06/16 08:51:11;;;;;;;4.08;1.15;;;;;;;23.73;34.27;99707.76;1720437;83;21048;-42
2022/06/16 08:54:08;;;;;;;1.70;1.10;;;;;;;23.67;34.61;99712.91;1720341;83;21132;-42
2022/06/16 08:56:57;;;;;;;4.22;1.52;;;;;;;23.59;34.65;99704.63;1720843;83;21006;-42
2022/06/16 08:59:44;;;;;;;4.62;1.00;;;;;;;23.64;35.27;99715.16;1720306;83;21805;-42
2022/06/16 09:02:50;;;;;;;2.77;1.32;;;;;;;23.80;35.10;99708.95;1720815;83;21011;-42
2022/06/16 09:05:35;;;;;;;3.00;1.10;;;;;;;24.06;34.97;99703.45;1720801;83;21043;-42
2022/06/16 09:08:08;;;;;;;5.72;1.40;;;;;;;24.35;33.67;99711.69;1720653;83;21157;-43
2022/06/16 09:11:15;;;;;;;1.85;1.10;;;;;;;24.50;32.64;99709.98;1720609;83;21524;-42
2022/06/16 09:14:18;;;;;;;1.30;1.00;;;;;;;24.62;32.86;99703.66;1689243;83;21030;-43
2022/06/16 09:16:54;;;;;;;2.20;1.00;;;;;;;24.85;33.66;99702.49;1713003;83;21059;-43
2022/06/16 09:20:00;;;;;;;2.35;1.00;;;;;;;25.13;32.02;99707.09;1728125;82;21081;-42
2022/06/16 09:22:45;;;;;;;8.03;1.00;;;;;;;25.30;30.39;99709.86;1734437;82;21785;-43
2022/06/16 09:25:39;;;;;;;2.30;1.30;;;;;;;25.37;30.20;99710.98;1734143;82;21041;-42
2022/06/16 09:28:27;;;;;;;2.05;0.90;;;;;;;25.23;30.26;99708.72;1734555;82;21009;-42
2022/06/16 09:30:55;;;;;;;3.60;0.98;;;;;;;24.97;29.94;99708.66;1734338;82;20997;-42
2022/06/16 09:33:34;;;;;;;1.65;1.00;;;;;;;24.69;31.06;99705.57;1713572;82;21061;-42
2022/06/16 09:36:11;;;;;;;1.80;1.00;;;;;;;24.59;30.50;99710.11;1734859;82;21123;-42
2022/06/16 09:39:01;;;;;;;2.63;1.00;;;;;;;24.46;30.46;99713.48;1734739;82;20957;-42
2022/06/16 09:44:49;;;;;;;2.47;1.02;;;;;;;24.21;31.14;99708.11;1734767;82;21469;-42
2022/06/16 09:47:20;;;;;;;1.70;0.80;;;;;;;24.14;31.58;99713.08;1734630;82;21030;-42
2022/06/16 09:49:52;;;;;;;1.75;1.07;;;;;;;24.16;32.28;99708.67;1734454;82;21234;-42
2022/06/16 09:52:40;;;;;;;1.98;1.15;;;;;;;24.21;32.98;99703.18;1720356;82;20978;-42
2022/06/16 09:55:19;;;;;;;2.55;1.10;;;;;;;24.31;33.29;99706.23;1734572;82;20970;-42
2022/06/16 09:57:51;;;;;;;2.37;0.93;;;;;;;24.45;32.84;99705.77;1733924;82;21104;-42
2022/06/16 10:00:22;;;;;;;2.55;1.10;;;;;;;24.48;31.71;99706.29;1734600;82;20930;-42
2022/06/16 10:02:57;;;;;;;1.77;0.90;;;;;;;24.45;31.50;99705.77;1734948;82;21088;-42
2022/06/16 10:05:37;;;;;;;2.10;0.98;;;;;;;24.42;31.21;99706.67;1733797;82;21883;-42
2022/06/16 10:08:12;;;;;;;2.58;1.07;;;;;;;24.37;31.01;99700.91;1734906;82;21013;-42
2022/06/16 10:11:00;;;;;;;3.25;1.10;;;;;;;24.34;31.83;99704.58;1734419;82;20949;-42
2022/06/16 10:13:39;;;;;;;1.57;1.10;;;;;;;24.36;31.45;99702.91;1734729;82;21555;-42
2022/06/16 10:16:13;;;;;;;2.35;1.17;;;;;;;24.39;32.02;99690.95;1734307;82;21241;-42
2022/06/16 10:18:41;;;;;;;1.47;1.00;;;;;;;24.58;31.67;99683.59;1742139;81;20961;-42
2022/06/16 10:21:10;;;;;;;1.80;0.93;;;;;;;24.81;31.31;99682.43;1742550;82;21028;-42
2022/06/16 10:23:57;;;;;;;3.27;0.90;;;;;;;25.08;31.70;99675.75;1743135;82;20922;-42
2022/06/16 10:26:26;;;;;;;1.98;1.10;;;;;;;25.45;32.59;99678.20;1742748;82;20987;-42
2022/06/16 10:29:23;;;;;;;2.37;1.00;;;;;;;25.85;31.05;99680.45;1742739;82;21497;-42
2022/06/16 10:31:52;;;;;;;2.70;1.30;;;;;;;26.18;31.22;99668.89;1742935;82;21084;-42
2022/06/16 10:34:33;;;;;;;1.70;1.22;;;;;;;26.56;29.22;99661.60;1742985;82;20938;-42
2022/06/16 10:37:20;;;;;;;1.50;0.90;;;;;;;26.81;29.93;99655.77;1742846;82;20957;-42
2022/06/16 10:39:54;;;;;;;3.52;1.27;;;;;;;27.01;28.73;99661.69;1742591;82;21037;-42
2022/06/16 10:42:35;;;;;;;1.82;0.95;;;;;;;27.19;29.24;99661.67;1742712;82;21923;-42
2022/06/16 10:45:09;;;;;;;1.57;1.07;;;;;;;27.46;28.76;99662.86;1742655;82;21017;-42
2022/06/16 10:47:47;;;;;;;1.95;1.00;;;;;;;27.60;28.47;99667.19;1742434;82;21033;-42
2022/06/16 10:50:34;;;;;;;1.40;0.98;;;;;;;27.49;26.77;99665.53;1742802;82;21077;-42
2022/06/16 10:53:05;;;;;;;0.90;0.70;;;;;;;27.12;27.18;99665.37;1742521;82;21049;-42
2022/06/16 10:55:39;;;;;;;1.10;0.82;;;;;;;26.65;27.91;99665.78;1742857;82;21109;-42
2022/06/16 10:58:26;;;;;;;3.22;0.90;;;;;;;26.14;28.89;99671.78;1742622;82;20997;-42
2022/06/16 11:01:23;;;;;;;2.37;1.12;;;;;;;25.73;28.54;99678.56;1742477;82;20970;-42
2022/06/16 11:03:55;;;;;;;2.27;1.02;;;;;;;25.44;29.17;99672.48;1742657;82;21016;-42
2022/06/16 11:06:23;;;;;;;4.42;1.17;;;;;;;25.34;28.91;99675.03;1736739;82;21064;-42
2022/06/16 11:08:58;;;;;;;7.15;1.22;;;;;;;25.50;29.19;99661.74;1743136;82;21690;-43
2022/06/16 11:11:42;;;;;;;1.65;0.90;;;;;;;25.93;29.01;99664.31;1743089;82;20965;-43
2022/06/16 11:14:16;;;;;;;1.37;0.98;;;;;;;26.30;29.37;99662.45;1742575;82;21045;-43
2022/06/16 11:16:53;;;;;;;1.92;0.95;;;;;;;26.77;28.28;99658.68;1742811;82;21045;-43
2022/06/16 11:19:32;;;;;;;1.75;1.05;;;;;;;27.12;28.70;99655.02;1714161;82;21077;-43
2022/06/16 11:22:07;;;;;;;1.77;1.00;;;;;;;27.53;26.77;99659.80;1742635;82;23183;-43
2022/06/16 11:24:34;;;;;;;1.65;1.05;;;;;;;27.76;26.84;99657.71;1713003;82;21033;-43
2022/06/16 11:27:15;;;;;;;1.75;0.98;;;;;;;28.14;26.52;99650.16;1742954;82;20970;-43
2022/06/16 11:29:42;;;;;;;2.15;1.35;;;;;;;28.37;25.86;99643.08;1714249;82;21076;-43
2022/06/16 11:32:20;;;;;;;4.90;1.12;;;;;;;28.63;24.70;99641.97;1743012;82;21025;-43
2022/06/16 11:34:47;;;;;;;1.42;0.93;;;;;;;28.71;24.80;99638.36;1743116;82;21111;-43
2022/06/16 11:37:33;;;;;;;3.65;1.00;;;;;;;28.72;24.97;99638.52;1742826;82;20961;-43
2022/06/16 11:40:21;;;;;;;1.72;1.00;;;;;;;28.79;24.22;99637.39;1742876;82;21033;-43
2022/06/16 11:43:16;;;;;;;5.90;1.27;;;;;;;28.93;24.50;99636.66;1742697;82;21045;-43
2022/06/16 11:45:57;;;;;;;1.72;1.00;;;;;;;29.02;23.85;99638.59;1742824;82;21590;-43
2022/06/16 11:48:36;;;;;;;1.60;0.90;;;;;;;29.04;25.55;99640.30;1742667;82;21300;-43
2022/06/16 11:51:33;;;;;;;3.80;1.15;;;;;;;29.27;25.27;99640.22;1742006;82;20934;-43
2022/06/16 11:54:22;;;;;;;2.08;0.90;;;;;;;29.38;25.00;99634.10;1738106;82;21009;-44
2022/06/16 11:56:59;;;;;;;3.98;1.12;;;;;;;29.26;24.24;99635.11;1742367;82;21539;-43
2022/06/16 11:59:46;;;;;;;2.80;1.22;;;;;;;28.87;24.90;99637.94;1742615;82;21001;-43
2022/06/16 12:02:30;;;;;;;3.10;1.27;;;;;;;28.50;24.65;99634.63;1742405;82;21838;-43
2022/06/16 12:05:28;;;;;;;1.65;0.85;;;;;;;28.33;26.00;99634.87;1742536;82;21545;-43
2022/06/16 12:08:06;;;;;;;2.55;0.95;;;;;;;28.38;26.27;99627.25;1742524;82;21088;-43
2022/06/16 12:10:53;;;;;;;1.57;0.88;;;;;;;28.32;25.75;99628.39;1742700;82;21017;-43
2022/06/16 12:13:29;;;;;;;4.83;1.00;;;;;;;28.34;26.09;99630.06;1742686;82;20957;-43
2022/06/16 12:16:09;;;;;;;2.77;1.02;;;;;;;28.65;25.94;99616.55;1742738;82;20966;-43
2022/06/16 12:19:05;;;;;;;1.77;0.85;;;;;;;29.16;25.31;99626.67;1746267;81;21013;-43
2022/06/16 12:21:45;;;;;;;2.37;1.00;;;;;;;29.53;24.67;99622.27;1748441;82;20961;-43
2022/06/16 12:24:56;;;;;;;4.00;1.27;;;;;;;29.64;24.09;99622.47;1748644;82;21081;-43
2022/06/16 12:27:31;;;;;;;2.15;0.88;;;;;;;29.69;24.13;99612.01;1748544;82;21029;-43
2022/06/16 12:30:04;;;;;;;3.00;1.00;;;;;;;29.76;23.91;99611.63;1748650;82;21161;-43
2022/06/16 12:32:42;;;;;;;2.15;1.20;;;;;;;29.98;24.44;99616.03;1748583;82;20890;-43